Perry, Arkansas
Current Conditions -  °F | °C
As of 3:03 PM on Saturday 22 Nov 2014 (Local Time) from KRUE Reporting Station
Overcast Overcast  
Wind Chill: 57°   Ceiling: 3700
Heat Index: 57°   Visibility: 8mi
Dew Point: 54°   Wind: 5mph
Humidity: 89%   Direction: 360°N
Pressure: 30.01"   Gusts: NA
Location:  35.05°N, 92.79°W
Report Text: KRUE 222103Z AUTO 36004KT 8SM FEW008 SCT014 OVC037 14/12 A3001 RMK AO2 T01390122
Loading
Personal Weather Stations






























Interactive Weather Map New forecast layout! Learn more

10-Day Weather Forecast

Advertisements
Track Severe Weather on mobile